Time;durP1;ratioP1;P1;durP2;ratioP2;P2;SDS_P1;SDS_P2;PMS_P1;PMS_P2;Temp;Humidity;BMP_temperature;BMP_pressure;BME280_temperature;BME280_humidity;BME280_pressure;Samples;Min_cycle;Max_cycle;Signal;HPM_P1;HPM_P2
2022/11/29 00:01:14;;;;;;;0.55;0.55;;;2.70;99.90;;;;;;5112960;28;20195;-84
2022/11/29 00:03:40;;;;;;;0.70;0.70;;;2.70;99.90;;;;;;5113368;28;20682;-83
2022/11/29 00:06:14;;;;;;;0.50;0.50;;;2.70;99.90;;;;;;5095084;28;20281;-83
2022/11/29 00:08:40;;;;;;;0.60;0.60;;;2.60;99.90;;;;;;5113160;28;20218;-84
2022/11/29 00:11:09;;;;;;;0.63;0.63;;;2.60;99.90;;;;;;5113197;28;20218;-85
2022/11/29 00:13:34;;;;;;;0.50;0.50;;;2.60;99.90;;;;;;5105075;28;20206;-83
2022/11/29 00:16:02;;;;;;;0.57;0.57;;;2.60;99.90;;;;;;5112709;28;20553;-83
2022/11/29 00:18:28;;;;;;;0.70;0.70;;;2.70;99.90;;;;;;5112947;28;20188;-84
2022/11/29 00:20:53;;;;;;;0.93;0.90;;;2.60;99.90;;;;;;5094883;28;20689;-84
2022/11/29 00:23:19;;;;;;;0.60;0.60;;;2.70;99.90;;;;;;5091203;28;20694;-85
2022/11/29 00:25:44;;;;;;;0.60;0.60;;;2.70;99.90;;;;;;5091379;28;20200;-79
2022/11/29 00:28:10;;;;;;;0.60;0.60;;;2.70;99.90;;;;;;5091005;28;20196;-78
2022/11/29 00:30:36;;;;;;;0.60;0.60;;;2.70;99.90;;;;;;5091946;28;20203;-79
2022/11/29 00:33:04;;;;;;;0.60;0.60;;;2.70;99.90;;;;;;5092257;28;20271;-79
2022/11/29 00:35:30;;;;;;;0.70;0.70;;;2.70;99.90;;;;;;5074041;28;20202;-81
2022/11/29 00:37:56;;;;;;;0.65;0.65;;;2.70;99.90;;;;;;5085719;28;20293;-79
2022/11/29 00:40:22;;;;;;;0.85;0.85;;;2.70;99.90;;;;;;5092100;28;20632;-79
2022/11/29 00:42:47;;;;;;;0.60;0.60;;;2.60;99.90;;;;;;5073955;28;20222;-79
2022/11/29 00:45:13;;;;;;;0.80;0.80;;;2.70;99.90;;;;;;5074265;28;20202;-78
2022/11/29 00:47:39;;;;;;;0.60;0.60;;;2.70;99.90;;;;;;5092005;28;20216;-79
2022/11/29 00:50:05;;;;;;;0.55;0.55;;;2.70;99.90;;;;;;5073988;28;20192;-78
2022/11/29 00:52:31;;;;;;;0.63;0.63;;;2.70;99.90;;;;;;5073542;28;20226;-79
2022/11/29 00:54:57;;;;;;;0.80;0.80;;;2.70;99.90;;;;;;5073922;28;20200;-79
2022/11/29 00:57:22;;;;;;;0.60;0.60;;;2.70;99.90;;;;;;5073509;28;20192;-79
2022/11/29 00:59:48;;;;;;;0.60;0.60;;;2.70;99.90;;;;;;5076118;28;20196;-80
2022/11/29 01:02:13;;;;;;;0.57;0.57;;;2.60;99.90;;;;;;5077660;28;20282;-79
2022/11/29 01:04:39;;;;;;;0.65;0.65;;;2.60;99.90;;;;;;5095581;28;20207;-79
2022/11/29 01:07:05;;;;;;;0.60;0.60;;;2.70;99.90;;;;;;5077582;28;20279;-79
2022/11/29 01:09:30;;;;;;;0.68;0.68;;;2.70;99.90;;;;;;5062128;28;20614;-79
2022/11/29 01:11:56;;;;;;;0.60;0.60;;;2.70;99.90;;;;;;5057295;28;20209;-79
2022/11/29 01:14:22;;;;;;;0.70;0.70;;;2.60;99.90;;;;;;5057155;28;20652;-80
2022/11/29 01:16:47;;;;;;;0.60;0.60;;;2.60;99.90;;;;;;5075252;28;20271;-79
2022/11/29 01:19:13;;;;;;;0.50;0.50;;;2.60;99.90;;;;;;5057422;28;20664;-79
2022/11/29 01:21:40;;;;;;;0.93;0.82;;;2.60;99.90;;;;;;5056927;28;20200;-80
2022/11/29 01:24:05;;;;;;;0.50;0.50;;;2.60;99.90;;;;;;5057330;28;20626;-79
2022/11/29 01:26:32;;;;;;;0.60;0.60;;;2.70;99.90;;;;;;5075029;28;20189;-79
2022/11/29 01:28:58;;;;;;;0.50;0.50;;;2.60;99.90;;;;;;5057068;28;20721;-80
2022/11/29 01:31:37;;;;;;;0.70;0.70;;;2.60;99.90;;;;;;5056955;28;20209;-80
2022/11/29 01:34:04;;;;;;;0.68;0.68;;;2.60;99.90;;;;;;5091533;28;20210;-80
2022/11/29 01:36:33;;;;;;;0.60;0.60;;;2.60;99.90;;;;;;5076895;28;20192;-80
2022/11/29 01:39:00;;;;;;;0.52;0.52;;;2.60;99.90;;;;;;5091618;28;20238;-80
2022/11/29 01:41:28;;;;;;;0.80;0.80;;;2.60;99.90;;;;;;5097264;28;20202;-79
2022/11/29 01:43:57;;;;;;;0.60;0.60;;;2.60;99.90;;;;;;5115280;28;20191;-82
2022/11/29 01:46:24;;;;;;;0.50;0.50;;;2.60;99.90;;;;;;5115494;28;20503;-80
2022/11/29 01:48:53;;;;;;;0.70;0.70;;;2.60;99.90;;;;;;5115340;28;20215;-81
2022/11/29 01:51:19;;;;;;;0.70;0.70;;;2.60;99.90;;;;;;5115737;28;20211;-79
2022/11/29 01:53:45;;;;;;;0.60;0.60;;;2.60;99.90;;;;;;5096594;28;20206;-80
2022/11/29 01:56:13;;;;;;;0.80;0.80;;;2.60;99.90;;;;;;5096928;28;20681;-80
2022/11/29 01:58:40;;;;;;;10.65;3.63;;;2.60;99.90;;;;;;5079779;28;20204;-80
2022/11/29 02:01:06;;;;;;;0.68;0.68;;;2.60;99.90;;;;;;5096800;28;20287;-81
2022/11/29 02:03:32;;;;;;;0.60;0.60;;;2.70;99.90;;;;;;5095693;28;20290;-79
2022/11/29 02:05:59;;;;;;;0.70;0.70;;;2.60;99.90;;;;;;5096140;28;20199;-79
2022/11/29 02:08:32;;;;;;;0.80;0.80;;;2.60;99.90;;;;;;5114038;28;20198;-80
2022/11/29 02:11:35;;;;;;;0.70;0.70;;;2.60;99.90;;;;;;5112288;28;20734;-79
2022/11/29 02:14:06;;;;;;;0.70;0.70;;;2.60;99.90;;;;;;5112550;28;20537;-80
2022/11/29 02:17:04;;;;;;;0.55;0.55;;;2.60;99.90;;;;;;5112011;28;20211;-80
2022/11/29 02:19:33;;;;;;;2.35;1.40;;;2.70;99.90;;;;;;5089540;28;20730;-80
2022/11/29 02:22:17;;;;;;;0.57;0.57;;;2.60;99.90;;;;;;5111870;28;20195;-79
2022/11/29 02:25:02;;;;;;;0.80;0.80;;;2.60;99.90;;;;;;5113097;28;20511;-80
2022/11/29 02:27:52;;;;;;;0.63;0.63;;;2.60;99.90;;;;;;5094850;28;20226;-79
2022/11/29 02:30:45;;;;;;;0.60;0.60;;;2.60;99.90;;;;;;5113118;28;20218;-79
2022/11/29 02:33:31;;;;;;;0.63;0.63;;;2.60;99.90;;;;;;5113173;28;20198;-80
2022/11/29 02:36:11;;;;;;;0.60;0.60;;;2.60;99.90;;;;;;5094396;28;20290;-79
2022/11/29 02:39:09;;;;;;;0.57;0.57;;;2.60;99.90;;;;;;5112119;28;20238;-79
2022/11/29 02:42:03;;;;;;;0.70;0.70;;;2.60;99.90;;;;;;5076962;28;20203;-79
2022/11/29 02:44:53;;;;;;;0.70;0.70;;;2.60;99.90;;;;;;5094348;28;20202;-79
2022/11/29 02:47:28;;;;;;;0.50;0.50;;;2.60;99.90;;;;;;5094554;28;20195;-80
2022/11/29 02:50:12;;;;;;;0.73;0.73;;;2.60;99.90;;;;;;5094040;28;20532;-79
2022/11/29 02:52:56;;;;;;;0.57;0.57;;;2.60;99.90;;;;;;5095314;28;20574;-80
2022/11/29 02:55:44;;;;;;;0.70;0.70;;;2.60;99.90;;;;;;5094966;28;20199;-79
2022/11/29 02:58:30;;;;;;;0.45;0.45;;;2.60;99.90;;;;;;5094500;28;20226;-79
2022/11/29 03:01:25;;;;;;;0.50;0.50;;;2.70;99.90;;;;;;5094321;28;20203;-79
2022/11/29 03:04:15;;;;;;;0.60;0.60;;;2.60;99.90;;;;;;5094876;28;20667;-79
2022/11/29 03:06:50;;;;;;;0.50;0.50;;;2.60;99.90;;;;;;5112323;28;20618;-80
2022/11/29 03:09:39;;;;;;;0.60;0.60;;;2.60;99.90;;;;;;5112792;28;20256;-79
2022/11/29 03:12:32;;;;;;;0.50;0.50;;;2.60;99.90;;;;;;5112389;28;20724;-79
2022/11/29 03:15:20;;;;;;;0.70;0.70;;;2.60;99.90;;;;;;5112818;28;20650;-80
2022/11/29 03:18:19;;;;;;;0.70;0.70;;;2.60;99.90;;;;;;5094730;28;20288;-80
2022/11/29 03:21:03;;;;;;;0.60;0.60;;;2.60;99.90;;;;;;5084596;28;20710;-80
2022/11/29 03:23:56;;;;;;;0.50;0.50;;;2.60;99.90;;;;;;5106025;28;20196;-80
2022/11/29 03:26:56;;;;;;;0.40;0.40;;;2.60;99.90;;;;;;5108088;28;20188;-80
2022/11/29 03:29:22;;;;;;;0.68;0.68;;;2.50;99.90;;;;;;5040175;28;20202;-87
2022/11/29 03:32:29;;;;;;;0.50;0.50;;;2.60;99.90;;;;;;5113836;28;20199;-89
2022/11/29 03:35:34;;;;;;;0.70;0.70;;;2.50;99.90;;;;;;5011628;28;20728;-88
2022/11/29 03:38:29;;;;;;;0.65;0.65;;;2.60;99.90;;;;;;5009877;28;20261;-87
2022/11/29 03:41:19;;;;;;;0.57;0.57;;;2.50;99.90;;;;;;5089436;28;20245;-88
2022/11/29 03:44:13;;;;;;;0.50;0.50;;;2.60;99.90;;;;;;5093150;28;20192;-87
2022/11/29 03:46:49;;;;;;;0.60;0.60;;;2.60;99.90;;;;;;5069726;28;20192;-87
2022/11/29 03:49:26;;;;;;;0.73;0.73;;;2.60;99.90;;;;;;5055083;28;20188;-87
2022/11/29 03:52:14;;;;;;;0.82;0.82;;;2.60;99.90;;;;;;5072736;28;20200;-85
2022/11/29 03:54:59;;;;;;;0.70;0.70;;;2.60;99.90;;;;;;5072688;28;20676;-86
2022/11/29 03:57:33;;;;;;;0.50;0.50;;;2.70;99.90;;;;;;5071374;28;20193;-86
2022/11/29 04:00:11;;;;;;;0.60;0.60;;;2.60;99.90;;;;;;5092897;28;20194;-87
2022/11/29 04:02:43;;;;;;;0.50;0.50;;;2.60;99.90;;;;;;5073173;28;20192;-87
2022/11/29 04:05:47;;;;;;;0.60;0.60;;;2.60;99.90;;;;;;5092601;28;20196;-87
2022/11/29 04:08:13;;;;;;;0.50;0.50;;;2.60;99.90;;;;;;5059848;28;20208;-87
2022/11/29 04:11:06;;;;;;;0.68;0.68;;;2.60;99.90;;;;;;5092485;28;20631;-86
2022/11/29 04:14:04;;;;;;;0.68;0.68;;;2.60;99.90;;;;;;5092351;28;20196;-87
2022/11/29 04:16:57;;;;;;;0.50;0.50;;;2.60;99.90;;;;;;5092444;28;20206;-86
2022/11/29 04:19:56;;;;;;;0.60;0.60;;;2.70;99.90;;;;;;5074149;28;20216;-86
2022/11/29 04:22:52;;;;;;;0.82;0.82;;;2.60;99.90;;;;;;5092372;28;20679;-86
2022/11/29 04:25:52;;;;;;;0.60;0.60;;;2.60;99.90;;;;;;5089109;28;20667;-87
2022/11/29 04:28:39;;;;;;;0.50;0.50;;;2.60;99.90;;;;;;5074567;28;20200;-86
2022/11/29 04:31:17;;;;;;;0.50;0.50;;;2.60;99.90;;;;;;5092989;28;20614;-87
2022/11/29 04:34:27;;;;;;;0.60;0.60;;;2.60;99.90;;;;;;5094990;28;20249;-87
2022/11/29 04:37:07;;;;;;;0.68;0.68;;;2.60;99.90;;;;;;5095895;28;20196;-80
2022/11/29 04:39:57;;;;;;;0.50;0.50;;;2.60;99.90;;;;;;5076833;28;20264;-79
2022/11/29 04:42:54;;;;;;;0.68;0.68;;;2.60;99.90;;;;;;5084854;28;20203;-80
2022/11/29 04:46:09;;;;;;;0.70;0.70;;;2.60;99.90;;;;;;5098206;28;20191;-80
2022/11/29 04:48:54;;;;;;;0.60;0.60;;;2.60;99.90;;;;;;5096029;28;20245;-87
2022/11/29 04:51:26;;;;;;;0.60;0.60;;;2.60;99.90;;;;;;5078376;28;20702;-86
2022/11/29 04:54:14;;;;;;;0.70;0.70;;;2.60;99.90;;;;;;5100760;28;20199;-87
2022/11/29 04:56:49;;;;;;;0.60;0.60;;;2.60;99.90;;;;;;5115728;28;20199;-86
2022/11/29 04:59:35;;;;;;;0.60;0.60;;;2.60;99.90;;;;;;5115394;28;20206;-87
2022/11/29 05:02:21;;;;;;;0.60;0.60;;;2.60;99.90;;;;;;5100908;28;20576;-86
2022/11/29 05:05:22;;;;;;;0.73;0.73;;;2.60;99.90;;;;;;5115679;28;20192;-86
2022/11/29 05:08:01;;;;;;;0.70;0.70;;;2.50;99.90;;;;;;5115294;28;20669;-86
2022/11/29 05:10:43;;;;;;;0.82;0.82;;;2.60;99.90;;;;;;5116151;28;20191;-86
2022/11/29 05:13:27;;;;;;;0.95;0.93;;;2.60;99.90;;;;;;5115969;28;20187;-86
2022/11/29 05:16:25;;;;;;;0.90;0.90;;;2.60;99.90;;;;;;5115290;28;20215;-86
2022/11/29 05:19:09;;;;;;;1.70;1.60;;;2.60;99.90;;;;;;5095134;28;20203;-87
2022/11/29 05:22:04;;;;;;;0.70;0.70;;;2.60;99.90;;;;;;5097845;28;20191;-85
2022/11/29 05:24:51;;;;;;;1.05;0.95;;;2.60;99.90;;;;;;5094184;28;20295;-85
2022/11/29 05:27:45;;;;;;;0.70;0.70;;;2.60;99.90;;;;;;5095486;28;20217;-86
2022/11/29 05:30:22;;;;;;;0.60;0.60;;;2.60;99.90;;;;;;5095598;28;20196;-86
2022/11/29 05:33:35;;;;;;;0.57;0.57;;;2.60;99.90;;;;;;5095460;28;20196;-85
2022/11/29 05:36:26;;;;;;;1.33;1.23;;;2.50;99.90;;;;;;5095841;28;20195;-86
2022/11/29 05:39:10;;;;;;;0.70;0.70;;;2.50;99.90;;;;;;5086661;28;20231;-85
2022/11/29 05:41:58;;;;;;;0.50;0.50;;;2.50;99.90;;;;;;5097054;28;20734;-86
2022/11/29 05:44:42;;;;;;;0.70;0.70;;;2.50;99.90;;;;;;5114517;28;20198;-85
2022/11/29 05:47:09;;;;;;;0.60;0.60;;;2.40;99.90;;;;;;5097468;28;20566;-85
2022/11/29 05:49:57;;;;;;;6.32;3.20;;;2.40;99.90;;;;;;5111363;28;20282;-87
2022/11/29 05:52:33;;;;;;;1.13;1.00;;;2.40;99.90;;;;;;5115181;28;20206;-86
2022/11/29 05:55:21;;;;;;;1.20;1.10;;;2.40;99.90;;;;;;5114751;28;20199;-86
2022/11/29 05:58:16;;;;;;;0.60;0.60;;;2.50;99.90;;;;;;5115694;28;20654;-86
2022/11/29 06:00:58;;;;;;;0.60;0.60;;;2.50;99.90;;;;;;5114109;28;20269;-86
2022/11/29 06:03:35;;;;;;;0.90;0.90;;;2.50;99.90;;;;;;5114196;28;20199;-86
2022/11/29 06:06:38;;;;;;;0.70;0.70;;;2.50;99.90;;;;;;5114192;28;20203;-86
2022/11/29 06:09:38;;;;;;;0.60;0.60;;;2.50;99.90;;;;;;5114105;28;20224;-86
2022/11/29 06:12:13;;;;;;;0.65;0.65;;;2.50;99.90;;;;;;5097105;28;20238;-88
2022/11/29 06:14:55;;;;;;;0.80;0.80;;;2.50;99.90;;;;;;5116252;27;20203;-86
2022/11/29 06:17:25;;;;;;;0.73;0.73;;;2.50;99.90;;;;;;5135804;27;20178;-84
2022/11/29 06:19:52;;;;;;;0.68;0.68;;;2.50;99.90;;;;;;5117325;27;20190;-85
2022/11/29 06:23:01;;;;;;;0.68;0.68;;;2.50;99.90;;;;;;5117461;27;20194;-86
2022/11/29 06:26:12;;;;;;;0.50;0.50;;;2.50;99.90;;;;;;5075931;28;20290;-86
2022/11/29 06:29:01;;;;;;;0.60;0.60;;;2.50;99.90;;;;;;5051230;28;20921;-86
2022/11/29 06:31:33;;;;;;;0.70;0.70;;;2.50;99.90;;;;;;5076093;28;20218;-86
2022/11/29 06:34:16;;;;;;;0.70;0.70;;;2.50;99.90;;;;;;5075344;28;20287;-87
2022/11/29 06:37:01;;;;;;;0.80;0.77;;;2.50;99.90;;;;;;5075562;28;21235;-86
2022/11/29 06:39:27;;;;;;;0.55;0.55;;;2.50;99.90;;;;;;5075760;28;20238;-85
2022/11/29 06:41:52;;;;;;;0.50;0.50;;;2.50;99.90;;;;;;5075987;28;20200;-87
2022/11/29 06:44:18;;;;;;;0.70;0.70;;;2.50;99.90;;;;;;5076009;28;20196;-86
2022/11/29 06:47:21;;;;;;;1.02;1.02;;;2.50;99.90;;;;;;5105100;28;20290;-79
2022/11/29 06:49:52;;;;;;;0.40;0.40;;;2.50;99.90;;;;;;5071491;28;20205;-79
2022/11/29 06:52:57;;;;;;;0.80;0.80;;;2.50;99.90;;;;;;5095903;28;20688;-79
2022/11/29 06:55:43;;;;;;;0.60;0.60;;;2.50;99.90;;;;;;5034330;28;20194;-79
2022/11/29 06:58:34;;;;;;;0.60;0.60;;;2.50;99.90;;;;;;5032496;28;20194;-78
2022/11/29 07:01:31;;;;;;;0.70;0.70;;;2.60;99.90;;;;;;5014743;28;20234;-79
2022/11/29 07:04:21;;;;;;;0.75;0.75;;;2.60;99.90;;;;;;5014802;28;20440;-80
2022/11/29 07:06:47;;;;;;;2.75;2.55;;;2.60;99.90;;;;;;5014530;28;20620;-79
2022/11/29 07:09:17;;;;;;;1.85;1.70;;;2.50;99.90;;;;;;5031269;28;20199;-78
2022/11/29 07:11:43;;;;;;;1.17;1.08;;;2.60;99.90;;;;;;5014337;28;20256;-78
2022/11/29 07:14:12;;;;;;;2.30;1.45;;;2.60;99.90;;;;;;5030977;28;20210;-78
2022/11/29 07:16:56;;;;;;;4.90;2.55;;;2.60;99.90;;;;;;5030957;28;20677;-79
2022/11/29 07:19:47;;;;;;;0.82;0.82;;;2.60;99.90;;;;;;5030674;28;20289;-79
2022/11/29 07:22:32;;;;;;;0.57;0.57;;;2.60;99.90;;;;;;5014061;28;20737;-80
2022/11/29 07:25:03;;;;;;;0.80;0.80;;;2.60;99.90;;;;;;5015357;28;20202;-81
2022/11/29 07:27:36;;;;;;;2.00;1.85;;;2.60;99.90;;;;;;5074604;28;20732;-79
2022/11/29 07:30:14;;;;;;;1.60;1.40;;;2.50;99.90;;;;;;5107046;28;20202;-78
2022/11/29 07:32:44;;;;;;;0.80;0.80;;;2.50;99.90;;;;;;5074547;28;20686;-79
2022/11/29 07:35:38;;;;;;;2.42;1.20;;;2.50;99.90;;;;;;5074902;28;20228;-78
2022/11/29 07:38:19;;;;;;;4.13;3.45;;;2.50;99.90;;;;;;5093010;28;20216;-79
2022/11/29 07:41:03;;;;;;;3.63;2.55;;;2.50;99.90;;;;;;5092991;28;20196;-79
2022/11/29 07:43:37;;;;;;;2.65;1.63;;;2.50;99.90;;;;;;5108622;28;20207;-80
2022/11/29 07:46:03;;;;;;;0.90;0.90;;;2.50;99.90;;;;;;5112454;28;20191;-79
2022/11/29 07:48:29;;;;;;;0.90;0.90;;;2.50;99.90;;;;;;5110786;28;20192;-79
2022/11/29 07:50:55;;;;;;;1.23;0.82;;;2.50;99.90;;;;;;5111683;28;20210;-78
2022/11/29 07:53:22;;;;;;;0.70;0.70;;;2.50;99.90;;;;;;5113258;28;20244;-79
2022/11/29 07:55:51;;;;;;;0.90;0.90;;;2.50;99.90;;;;;;5111895;28;20235;-79
2022/11/29 07:58:17;;;;;;;0.52;0.52;;;2.50;99.90;;;;;;5095200;28;20219;-78
2022/11/29 08:00:44;;;;;;;1.15;1.05;;;2.60;99.90;;;;;;5111484;28;20239;-78
2022/11/29 08:03:10;;;;;;;0.70;0.70;;;2.50;99.90;;;;;;5111860;28;20195;-79
2022/11/29 08:05:37;;;;;;;1.15;1.05;;;2.50;99.90;;;;;;5111070;28;20654;-79
2022/11/29 08:08:06;;;;;;;0.70;0.70;;;2.50;99.90;;;;;;5096840;28;20680;-79
2022/11/29 08:10:31;;;;;;;0.70;0.70;;;2.50;99.90;;;;;;5097763;28;20191;-79
2022/11/29 08:12:57;;;;;;;0.60;0.60;;;2.50;99.90;;;;;;5117279;28;20534;-79
2022/11/29 08:15:24;;;;;;;0.80;0.80;;;2.50;99.90;;;;;;5116626;28;20195;-78
2022/11/29 08:17:50;;;;;;;0.63;0.63;;;2.50;99.90;;;;;;5116833;28;20571;-79
2022/11/29 08:20:16;;;;;;;0.50;0.50;;;2.50;99.90;;;;;;5116803;28;20554;-78
2022/11/29 08:22:42;;;;;;;0.70;0.70;;;2.60;99.90;;;;;;5098260;28;20662;-79
2022/11/29 08:25:08;;;;;;;0.75;0.75;;;2.60;99.90;;;;;;5116820;28;20705;-79
2022/11/29 08:27:35;;;;;;;0.60;0.60;;;2.60;99.90;;;;;;5098180;28;20680;-79
2022/11/29 08:30:02;;;;;;;1.45;1.05;;;2.60;99.90;;;;;;5116721;28;20714;-79
2022/11/29 08:32:28;;;;;;;0.75;0.75;;;2.60;99.90;;;;;;5098192;28;20262;-80
2022/11/29 08:34:53;;;;;;;0.70;0.70;;;2.60;99.90;;;;;;5115992;28;20183;-79
2022/11/29 08:37:19;;;;;;;0.50;0.50;;;2.60;99.90;;;;;;5116491;28;20195;-80
2022/11/29 08:39:45;;;;;;;0.70;0.70;;;2.60;99.90;;;;;;5116186;28;20265;-79
2022/11/29 08:42:11;;;;;;;0.70;0.70;;;2.60;99.90;;;;;;5115227;28;20563;-80
2022/11/29 08:44:36;;;;;;;0.63;0.63;;;2.60;99.90;;;;;;5114484;28;20211;-79
2022/11/29 08:50:02;;;;;;;0.65;0.65;;;2.70;99.90;;;;;;5116841;28;20230;-80
2022/11/29 08:55:22;;;;;;;0.50;0.50;;;2.70;99.90;;;;;;5116444;28;20247;-80
2022/11/29 08:57:49;;;;;;;0.95;0.95;;;2.70;99.90;;;;;;5114920;28;20646;-79
2022/11/29 09:00:16;;;;;;;1.10;1.00;;;2.70;99.90;;;;;;5114996;28;20192;-79
2022/11/29 09:02:42;;;;;;;0.50;0.50;;;2.70;99.90;;;;;;5117221;27;20722;-79
2022/11/29 09:05:09;;;;;;;0.45;0.45;;;2.70;99.90;;;;;;5118146;27;20282;-78
2022/11/29 09:07:38;;;;;;;0.80;0.80;;;2.70;99.90;;;;;;5136267;27;20191;-78
2022/11/29 09:10:07;;;;;;;0.93;0.93;;;2.70;99.90;;;;;;5136654;27;20186;-78
2022/11/29 09:12:37;;;;;;;0.70;0.70;;;2.80;99.90;;;;;;5136191;27;20205;-78
2022/11/29 09:15:05;;;;;;;1.65;1.42;;;2.80;99.90;;;;;;5117939;27;20195;-79
2022/11/29 09:17:31;;;;;;;0.60;0.60;;;2.70;99.90;;;;;;5117731;27;20187;-78
2022/11/29 09:19:59;;;;;;;0.60;0.60;;;2.80;99.90;;;;;;5135034;27;20205;-78
2022/11/29 09:22:25;;;;;;;0.60;0.60;;;2.80;99.90;;;;;;5136190;27;20191;-78
2022/11/29 09:24:51;;;;;;;1.48;1.38;;;2.80;99.90;;;;;;5098826;28;20551;-78
2022/11/29 09:27:16;;;;;;;1.67;1.58;;;2.80;99.90;;;;;;5097495;28;20199;-77
2022/11/29 09:29:42;;;;;;;0.68;0.68;;;2.80;99.90;;;;;;5115324;28;20199;-78
2022/11/29 09:32:08;;;;;;;0.80;0.80;;;2.80;99.90;;;;;;5115445;28;20286;-78
2022/11/29 09:34:34;;;;;;;0.90;0.90;;;2.80;99.90;;;;;;5114983;28;20194;-78
2022/11/29 09:37:00;;;;;;;0.50;0.50;;;2.80;99.90;;;;;;5113994;28;20658;-77
2022/11/29 09:39:25;;;;;;;0.50;0.50;;;2.80;99.90;;;;;;5131030;27;20223;-78
2022/11/29 09:42:06;;;;;;;1.52;1.13;;;2.80;99.90;;;;;;5117383;27;20205;-78
2022/11/29 09:44:50;;;;;;;1.40;1.30;;;2.80;99.90;;;;;;5117787;27;20194;-86
2022/11/29 09:47:41;;;;;;;2.17;1.98;;;2.90;99.90;;;;;;5117551;27;20201;-84
2022/11/29 09:50:34;;;;;;;1.00;1.00;;;2.80;99.90;;;;;;5117396;27;20201;-83
2022/11/29 09:53:06;;;;;;;1.15;1.05;;;2.80;99.90;;;;;;5134951;27;20234;-84
2022/11/29 09:56:10;;;;;;;0.70;0.70;;;2.80;99.90;;;;;;5135047;27;20240;-83
2022/11/29 09:59:01;;;;;;;0.70;0.70;;;2.80;99.90;;;;;;5133127;27;20239;-85
2022/11/29 10:01:41;;;;;;;0.70;0.70;;;2.80;99.90;;;;;;5102908;28;20199;-84
2022/11/29 10:04:17;;;;;;;0.60;0.60;;;2.80;99.90;;;;;;5096930;28;20750;-84
2022/11/29 10:06:57;;;;;;;0.80;0.80;;;2.80;99.90;;;;;;5114724;28;20281;-86
2022/11/29 10:09:42;;;;;;;0.60;0.60;;;2.80;99.90;;;;;;5096421;28;20611;-83
2022/11/29 10:12:27;;;;;;;0.70;0.70;;;2.80;99.90;;;;;;5096795;28;20548;-84
2022/11/29 10:15:17;;;;;;;0.60;0.60;;;2.80;99.90;;;;;;5114810;28;20686;-83
2022/11/29 10:17:54;;;;;;;0.70;0.70;;;2.80;99.90;;;;;;5114904;28;20214;-83
2022/11/29 10:20:30;;;;;;;0.77;0.77;;;2.90;99.90;;;;;;5096421;28;20286;-83
2022/11/29 10:23:17;;;;;;;0.80;0.80;;;2.80;99.90;;;;;;5114362;28;20237;-84
2022/11/29 10:25:46;;;;;;;0.52;0.52;;;2.80;99.90;;;;;;5114868;28;20199;-85
2022/11/29 10:28:21;;;;;;;0.68;0.68;;;2.80;99.90;;;;;;5096686;28;20680;-88
2022/11/29 10:30:47;;;;;;;0.60;0.60;;;2.80;99.90;;;;;;5117719;27;20234;-86
2022/11/29 10:36:58;;;;;;;0.77;0.77;;;2.80;99.90;;;;;;5111980;28;20574;-86
2022/11/29 10:39:38;;;;;;;0.73;0.73;;;2.80;99.90;;;;;;5070230;28;20293;-85
2022/11/29 10:42:47;;;;;;;0.70;0.70;;;2.80;99.90;;;;;;5076509;28;20257;-86
2022/11/29 10:44:51;;;;;;;0.77;0.77;;;2.80;99.90;;;;;;5093983;28;20575;-86
2022/11/29 10:47:17;;;;;;;0.57;0.57;;;2.80;99.90;;;;;;5093941;28;20196;-86
2022/11/29 10:49:42;;;;;;;0.80;0.80;;;2.80;99.90;;;;;;5076038;28;20204;-86
2022/11/29 10:52:18;;;;;;;0.60;0.60;;;2.70;99.90;;;;;;5075718;28;20208;-87
2022/11/29 10:54:45;;;;;;;0.70;0.70;;;2.80;99.90;;;;;;5092393;28;20196;-85
2022/11/29 10:57:19;;;;;;;0.70;0.70;;;2.80;99.90;;;;;;5056323;28;20288;-86
2022/11/29 11:00:03;;;;;;;0.60;0.60;;;2.90;99.90;;;;;;5056396;28;20280;-85
2022/11/29 11:02:32;;;;;;;0.60;0.60;;;2.90;99.90;;;;;;5057048;28;20695;-84
2022/11/29 11:05:00;;;;;;;0.70;0.70;;;2.80;99.90;;;;;;5073871;28;20253;-85
2022/11/29 11:07:34;;;;;;;0.60;0.60;;;2.80;99.90;;;;;;5056027;28;20224;-87
2022/11/29 11:10:18;;;;;;;0.65;0.65;;;2.80;99.90;;;;;;5074942;28;20647;-87
2022/11/29 11:13:04;;;;;;;0.70;0.70;;;2.90;99.90;;;;;;5075364;28;20205;-87
2022/11/29 11:15:31;;;;;;;0.57;0.57;;;2.80;99.90;;;;;;5075471;28;20505;-87
2022/11/29 11:17:59;;;;;;;0.68;0.68;;;2.90;99.90;;;;;;5075909;28;20559;-87
2022/11/29 11:20:29;;;;;;;0.60;0.60;;;2.80;99.90;;;;;;5093605;28;20191;-84
2022/11/29 11:23:20;;;;;;;0.70;0.70;;;2.90;99.90;;;;;;5093477;28;20648;-84
2022/11/29 11:25:48;;;;;;;0.95;0.95;;;2.90;99.90;;;;;;5093864;28;20608;-83
2022/11/29 11:28:47;;;;;;;0.60;0.60;;;2.90;99.90;;;;;;5094437;28;20227;-84
2022/11/29 11:31:13;;;;;;;0.50;0.50;;;2.80;99.90;;;;;;5093745;28;20208;-84
2022/11/29 11:33:43;;;;;;;0.68;0.68;;;2.80;99.90;;;;;;5092537;28;20275;-84
2022/11/29 11:36:18;;;;;;;0.52;0.52;;;2.80;99.90;;;;;;5075744;28;20188;-84
2022/11/29 11:38:54;;;;;;;0.68;0.68;;;2.80;99.90;;;;;;5096004;28;20268;-82
2022/11/29 11:42:35;;;;;;;0.88;0.88;;;2.80;99.90;;;;;;5113940;28;20195;-83
2022/11/29 11:44:39;;;;;;;0.68;0.68;;;2.90;99.90;;;;;;5113106;28;20199;-84
2022/11/29 11:47:18;;;;;;;0.70;0.70;;;2.90;99.90;;;;;;5114104;28;20236;-84
2022/11/29 11:49:47;;;;;;;0.70;0.70;;;2.90;99.90;;;;;;5113680;28;20649;-83
2022/11/29 11:52:23;;;;;;;0.60;0.60;;;2.80;99.90;;;;;;5113850;28;20682;-87
2022/11/29 11:55:00;;;;;;;0.60;0.60;;;2.80;99.90;;;;;;5096055;28;20564;-83
2022/11/29 11:57:26;;;;;;;0.40;0.40;;;2.90;99.90;;;;;;5113252;28;20645;-84
2022/11/29 11:59:55;;;;;;;0.60;0.60;;;2.90;99.90;;;;;;5095337;28;20206;-84
2022/11/29 12:02:34;;;;;;;0.55;0.55;;;2.90;99.90;;;;;;5113394;28;20233;-83
2022/11/29 12:05:02;;;;;;;1.13;1.02;;;2.90;99.90;;;;;;5113934;28;20559;-85
2022/11/29 12:08:00;;;;;;;0.70;0.70;;;2.90;99.90;;;;;;5113109;28;20613;-83
2022/11/29 12:10:29;;;;;;;0.70;0.70;;;2.90;99.90;;;;;;5075678;28;20242;-84
2022/11/29 12:12:58;;;;;;;0.60;0.60;;;2.90;99.90;;;;;;5094702;28;20210;-84
2022/11/29 12:15:30;;;;;;;0.60;0.60;;;2.90;99.90;;;;;;5113598;28;20199;-85
2022/11/29 12:18:25;;;;;;;0.70;0.70;;;2.90;99.90;;;;;;5095128;28;20191;-84
2022/11/29 12:21:06;;;;;;;0.50;0.50;;;2.90;99.90;;;;;;5083494;28;20199;-83
2022/11/29 12:23:57;;;;;;;0.60;0.60;;;2.90;99.90;;;;;;5113055;28;20658;-84
2022/11/29 12:26:35;;;;;;;0.93;0.88;;;3.00;99.90;;;;;;5112861;28;20211;-84
2022/11/29 12:29:01;;;;;;;0.60;0.60;;;2.90;99.90;;;;;;5113302;28;20187;-84
2022/11/29 12:32:07;;;;;;;0.50;0.50;;;3.00;99.90;;;;;;5094445;28;20549;-84
2022/11/29 12:34:55;;;;;;;0.70;0.70;;;2.90;99.90;;;;;;5112764;28;20199;-84
2022/11/29 12:37:30;;;;;;;0.50;0.50;;;2.90;99.90;;;;;;5112984;28;20187;-82
2022/11/29 12:40:39;;;;;;;0.63;0.63;;;3.00;99.90;;;;;;5112988;28;20231;-83
2022/11/29 12:43:23;;;;;;;0.40;0.40;;;3.00;99.90;;;;;;5113052;28;20214;-82
2022/11/29 12:46:17;;;;;;;0.65;0.65;;;3.00;99.90;;;;;;5113178;28;20705;-83
2022/11/29 12:49:22;;;;;;;3.25;1.77;;;3.10;99.90;;;;;;5069477;28;20605;-84
2022/11/29 12:52:16;;;;;;;0.50;0.50;;;3.10;99.90;;;;;;5092634;28;20204;-85
2022/11/29 12:55:06;;;;;;;0.77;0.77;;;3.10;99.90;;;;;;5092042;28;20204;-85
2022/11/29 12:57:57;;;;;;;0.75;0.75;;;3.10;99.90;;;;;;5078028;28;20196;-85
2022/11/29 13:00:42;;;;;;;0.60;0.60;;;3.10;99.90;;;;;;5095694;28;20263;-85
2022/11/29 13:03:11;;;;;;;0.70;0.70;;;3.00;99.90;;;;;;5095671;28;20196;-85
2022/11/29 13:05:53;;;;;;;0.60;0.60;;;3.00;99.90;;;;;;5077660;28;20200;-85
2022/11/29 13:08:19;;;;;;;0.70;0.70;;;3.00;99.90;;;;;;5100972;28;20237;-84
2022/11/29 13:10:50;;;;;;;0.60;0.60;;;3.00;99.90;;;;;;5098062;28;20567;-84
2022/11/29 13:13:33;;;;;;;0.98;0.90;;;3.00;99.90;;;;;;5116553;28;20192;-85
2022/11/29 13:16:27;;;;;;;0.70;0.70;;;3.00;99.90;;;;;;5116687;28;20191;-85
2022/11/29 13:19:16;;;;;;;0.70;0.70;;;3.00;99.90;;;;;;5098184;28;20213;-84
2022/11/29 13:21:49;;;;;;;0.60;0.60;;;3.00;99.90;;;;;;5115888;28;20291;-84
2022/11/29 13:24:24;;;;;;;0.70;0.70;;;3.00;99.90;;;;;;5097816;28;20196;-84
2022/11/29 13:26:51;;;;;;;0.50;0.50;;;2.90;99.90;;;;;;5097738;28;20199;-83
2022/11/29 13:29:17;;;;;;;0.90;0.90;;;2.90;99.90;;;;;;5116198;28;20195;-84
2022/11/29 13:31:45;;;;;;;0.50;0.50;;;3.00;99.90;;;;;;5115860;28;20579;-83
2022/11/29 13:34:13;;;;;;;0.98;0.98;;;2.90;99.90;;;;;;5115916;28;20196;-84
2022/11/29 13:36:47;;;;;;;1.02;0.95;;;2.90;99.90;;;;;;5115481;28;20198;-84
2022/11/29 13:39:24;;;;;;;0.50;0.50;;;2.90;99.90;;;;;;5083155;28;20227;-83
2022/11/29 13:42:02;;;;;;;0.60;0.60;;;2.90;99.90;;;;;;5094718;28;20659;-83
2022/11/29 13:44:57;;;;;;;0.52;0.52;;;2.80;99.90;;;;;;5094962;28;20200;-82
2022/11/29 13:47:23;;;;;;;0.60;0.60;;;2.90;99.90;;;;;;5094944;28;20200;-82
2022/11/29 13:50:03;;;;;;;1.13;1.10;;;2.80;99.90;;;;;;5095107;28;20314;-82
2022/11/29 13:52:42;;;;;;;0.57;0.57;;;2.80;99.90;;;;;;5076782;28;20208;-82
2022/11/29 13:55:11;;;;;;;0.80;0.80;;;2.80;99.90;;;;;;5094725;28;20271;-82
2022/11/29 13:57:47;;;;;;;0.70;0.70;;;2.70;99.90;;;;;;5098113;28;20184;-84
2022/11/29 14:00:48;;;;;;;0.75;0.75;;;2.80;99.90;;;;;;5076384;28;20721;-83
2022/11/29 14:03:20;;;;;;;0.60;0.60;;;2.80;99.90;;;;;;5076272;28;20257;-84